Time;durP1;ratioP1;P1;durP2;ratioP2;P2;SDS_P1;SDS_P2;PMS_P1;PMS_P2;Temp;Humidity;BMP_temperature;BMP_pressure;BME280_temperature;BME280_humidity;BME280_pressure;Samples;Min_cycle;Max_cycle;Signal;HPM_P1;HPM_P2
2023/07/21 00:01:04;;;;;;;2.03;1.83;;;19.70;94.30;;;;;;4896222;29;20545;-76
2023/07/21 00:03:32;;;;;;;2.53;1.80;;;19.60;94.30;;;;;;4897699;29;20499;-76
2023/07/21 00:06:00;;;;;;;1.70;1.50;;;19.60;94.20;;;;;;4897100;29;20553;-76
2023/07/21 00:08:28;;;;;;;2.43;1.50;;;19.60;94.30;;;;;;4897464;29;20569;-76
2023/07/21 00:11:00;;;;;;;2.30;2.00;;;19.60;94.30;;;;;;4896822;29;20482;-76
2023/07/21 00:13:27;;;;;;;2.20;2.00;;;19.60;94.40;;;;;;4897606;29;20542;-76
2023/07/21 00:15:55;;;;;;;2.70;1.60;;;19.50;94.30;;;;;;4897345;29;20513;-76
2023/07/21 00:18:23;;;;;;;2.93;1.83;;;19.50;94.40;;;;;;4897675;29;20545;-76
2023/07/21 00:20:50;;;;;;;2.23;2.03;;;19.50;94.40;;;;;;4897856;29;20987;-82
2023/07/21 00:23:19;;;;;;;2.80;1.67;;;19.50;94.40;;;;;;4901093;29;20489;-75
2023/07/21 00:25:49;;;;;;;3.63;2.07;;;19.40;94.50;;;;;;4901442;29;20474;-76
2023/07/21 00:28:18;;;;;;;4.43;2.10;;;19.40;94.50;;;;;;4900797;29;20466;-81
2023/07/21 00:30:47;;;;;;;2.50;1.70;;;19.30;94.50;;;;;;4901261;29;20479;-76
2023/07/21 00:33:14;;;;;;;2.37;1.70;;;19.30;94.60;;;;;;4900489;29;20538;-76
2023/07/21 00:35:42;;;;;;;3.03;1.93;;;19.30;94.60;;;;;;4901058;29;20976;-81
2023/07/21 00:38:09;;;;;;;1.97;1.80;;;19.30;94.70;;;;;;4899165;29;20466;-76
2023/07/21 00:40:38;;;;;;;2.63;1.70;;;19.30;94.70;;;;;;4900905;29;20470;-82
2023/07/21 00:43:06;;;;;;;2.33;1.97;;;19.20;94.80;;;;;;4899964;29;20475;-76
2023/07/21 00:45:38;;;;;;;2.87;1.97;;;19.20;94.80;;;;;;4900553;29;20474;-76
2023/07/21 00:48:08;;;;;;;2.43;1.73;;;19.20;94.80;;;;;;4900276;29;20485;-82
2023/07/21 00:50:40;;;;;;;1.77;1.47;;;19.20;94.90;;;;;;4900939;29;20479;-76
2023/07/21 00:53:07;;;;;;;2.20;1.90;;;19.20;94.90;;;;;;4899824;29;20494;-82
2023/07/21 00:55:35;;;;;;;2.17;1.97;;;19.20;94.90;;;;;;4900654;29;20562;-82
2023/07/21 00:58:02;;;;;;;1.77;1.67;;;19.10;95.00;;;;;;4900279;29;20482;-76
2023/07/21 01:00:29;;;;;;;4.03;1.80;;;19.10;95.00;;;;;;4900624;29;20545;-82
2023/07/21 01:02:58;;;;;;;3.33;1.63;;;19.10;95.10;;;;;;4900098;29;20485;-81
2023/07/21 01:05:25;;;;;;;1.90;1.80;;;19.10;95.20;;;;;;4900743;29;20509;-82
2023/07/21 01:07:52;;;;;;;2.27;1.67;;;19.00;95.20;;;;;;4900234;29;20493;-82
2023/07/21 01:10:20;;;;;;;2.33;1.50;;;19.00;95.20;;;;;;4899881;29;20478;-81
2023/07/21 01:12:51;;;;;;;1.80;1.50;;;19.00;95.30;;;;;;4900638;29;20837;-81
2023/07/21 01:15:18;;;;;;;1.93;1.47;;;19.00;95.40;;;;;;4899294;29;20533;-83
2023/07/21 01:17:47;;;;;;;1.70;1.57;;;18.90;95.50;;;;;;4896376;29;20481;-76
2023/07/21 01:20:16;;;;;;;1.97;1.67;;;18.90;95.50;;;;;;4899628;29;20883;-82
2023/07/21 01:22:48;;;;;;;2.53;1.90;;;18.90;95.60;;;;;;4899924;29;20482;-75
2023/07/21 01:25:17;;;;;;;1.97;1.30;;;18.90;95.60;;;;;;4899738;29;20825;-82
2023/07/21 01:27:46;;;;;;;3.57;1.43;;;18.90;95.70;;;;;;4899961;29;20505;-82
2023/07/21 01:30:15;;;;;;;2.33;1.53;;;18.90;95.80;;;;;;4899509;29;20549;-76
2023/07/21 01:32:44;;;;;;;2.30;1.37;;;18.90;95.90;;;;;;4899545;29;20843;-75
2023/07/21 01:35:17;;;;;;;2.53;1.40;;;18.80;96.00;;;;;;4899156;29;20498;-76
2023/07/21 01:37:50;;;;;;;1.60;1.50;;;18.80;96.10;;;;;;4900010;29;20535;-82
2023/07/21 01:40:19;;;;;;;2.60;1.67;;;18.80;96.20;;;;;;4899553;29;21004;-82
2023/07/21 01:42:47;;;;;;;2.30;1.90;;;18.80;96.20;;;;;;4899493;29;20508;-82
2023/07/21 01:45:15;;;;;;;4.90;2.47;;;18.80;96.30;;;;;;4898978;29;20569;-76
2023/07/21 01:47:45;;;;;;;2.73;1.80;;;18.80;96.40;;;;;;4899681;29;20470;-76
2023/07/21 01:50:14;;;;;;;2.10;1.67;;;18.70;96.40;;;;;;4900062;29;21128;-82
2023/07/21 01:52:43;;;;;;;2.47;1.50;;;18.70;96.50;;;;;;4900504;29;20479;-76
2023/07/21 01:55:15;;;;;;;2.23;1.53;;;18.70;96.50;;;;;;4898862;29;20489;-76
2023/07/21 01:57:47;;;;;;;3.50;1.73;;;18.70;96.50;;;;;;4899687;29;20474;-82
2023/07/21 02:00:15;;;;;;;2.20;1.30;;;18.70;96.50;;;;;;4890659;29;21003;-81
2023/07/21 02:02:47;;;;;;;1.40;1.30;;;18.70;96.60;;;;;;4899897;29;20474;-76
2023/07/21 02:05:22;;;;;;;2.60;1.43;;;18.70;96.70;;;;;;4898898;29;20483;-76
2023/07/21 02:07:49;;;;;;;1.70;1.50;;;18.70;96.80;;;;;;4899539;29;20565;-76
2023/07/21 02:10:16;;;;;;;1.17;1.07;;;18.70;96.80;;;;;;4899075;29;20470;-76
2023/07/21 02:12:44;;;;;;;1.40;1.30;;;18.70;96.90;;;;;;4899519;29;20478;-76
2023/07/21 02:15:12;;;;;;;1.70;1.47;;;18.70;96.90;;;;;;4898446;29;20565;-81
2023/07/21 02:17:41;;;;;;;2.80;1.90;;;18.70;97.00;;;;;;4899361;29;20553;-81
2023/07/21 02:20:09;;;;;;;1.83;1.33;;;18.70;97.10;;;;;;4898646;29;20830;-75
2023/07/21 02:22:37;;;;;;;3.73;2.00;;;18.60;97.10;;;;;;4899381;29;20469;-81
2023/07/21 02:25:06;;;;;;;2.43;1.70;;;18.60;97.20;;;;;;4898839;29;20495;-81
2023/07/21 02:27:34;;;;;;;2.03;1.77;;;18.60;97.30;;;;;;4898823;29;20458;-81
2023/07/21 02:30:04;;;;;;;2.33;1.87;;;18.60;97.30;;;;;;4899602;29;20537;-81
2023/07/21 02:32:30;;;;;;;2.37;1.47;;;18.60;97.30;;;;;;4898999;29;20458;-81
2023/07/21 02:34:58;;;;;;;4.40;1.63;;;18.60;97.30;;;;;;4899065;29;20489;-81
2023/07/21 02:37:25;;;;;;;2.67;2.03;;;18.60;97.50;;;;;;4898219;29;20565;-76
2023/07/21 02:39:53;;;;;;;3.70;2.00;;;18.60;97.60;;;;;;4898822;29;20570;-82
2023/07/21 02:42:20;;;;;;;2.43;1.70;;;18.60;97.70;;;;;;4898393;29;20961;-83
2023/07/21 02:44:47;;;;;;;2.80;1.80;;;18.60;97.80;;;;;;4889746;29;20853;-76
2023/07/21 02:47:17;;;;;;;1.97;1.40;;;18.50;97.90;;;;;;4898259;29;20499;-76
2023/07/21 02:49:44;;;;;;;2.17;1.53;;;18.50;97.90;;;;;;4898539;29;20474;-76
2023/07/21 02:52:11;;;;;;;2.40;1.57;;;18.60;98.00;;;;;;4898823;29;20957;-76
2023/07/21 02:54:38;;;;;;;1.57;1.47;;;18.60;98.00;;;;;;4898030;29;20956;-82
2023/07/21 02:57:06;;;;;;;2.30;1.83;;;18.60;98.00;;;;;;4898559;29;20862;-82
2023/07/21 02:59:35;;;;;;;4.00;1.90;;;18.60;98.10;;;;;;4897667;29;20485;-81
2023/07/21 03:02:02;;;;;;;2.30;1.80;;;18.60;98.20;;;;;;4897805;29;20481;-76
2023/07/21 03:04:34;;;;;;;2.53;1.60;;;18.60;98.20;;;;;;4897832;29;20565;-76
2023/07/21 03:07:01;;;;;;;5.20;1.90;;;18.60;98.30;;;;;;4898797;29;20633;-82
2023/07/21 03:09:29;;;;;;;4.23;2.50;;;18.60;98.30;;;;;;4897488;29;20502;-75
2023/07/21 03:11:57;;;;;;;3.10;2.03;;;18.50;98.30;;;;;;4898059;29;20475;-76
2023/07/21 03:14:24;;;;;;;2.30;1.93;;;18.50;98.30;;;;;;4897623;29;20501;-75
2023/07/21 03:16:51;;;;;;;1.80;1.70;;;18.50;98.40;;;;;;4897692;29;20474;-75
2023/07/21 03:19:18;;;;;;;2.17;1.83;;;18.50;98.40;;;;;;4897835;29;20550;-75
2023/07/21 03:21:46;;;;;;;2.60;2.23;;;18.50;98.40;;;;;;4897647;29;20549;-75
2023/07/21 03:24:14;;;;;;;3.90;1.90;;;18.50;98.50;;;;;;4897783;29;20549;-76
2023/07/21 03:26:40;;;;;;;2.27;1.80;;;18.50;98.60;;;;;;4897857;29;20490;-82
2023/07/21 03:29:08;;;;;;;1.80;1.50;;;18.50;98.70;;;;;;4897888;29;20565;-76
2023/07/21 03:31:35;;;;;;;1.60;1.50;;;18.50;98.80;;;;;;4898057;29;20830;-82
2023/07/21 03:34:02;;;;;;;3.20;2.27;;;18.50;98.90;;;;;;4898449;29;20553;-81
2023/07/21 03:36:29;;;;;;;2.30;2.10;;;18.40;99.00;;;;;;4897589;29;20538;-81
2023/07/21 03:38:57;;;;;;;3.50;2.33;;;18.40;99.10;;;;;;4898053;29;20561;-75
2023/07/21 03:41:24;;;;;;;2.77;2.03;;;18.40;99.20;;;;;;4897619;29;20479;-82
2023/07/21 03:43:51;;;;;;;7.20;2.10;;;18.40;99.20;;;;;;4898043;29;20562;-81
2023/07/21 03:46:18;;;;;;;2.07;1.70;;;18.40;99.30;;;;;;4897508;29;20563;-77
2023/07/21 03:48:45;;;;;;;3.47;2.03;;;18.40;99.40;;;;;;4897613;29;20502;-76
2023/07/21 03:51:13;;;;;;;1.83;1.60;;;18.40;99.40;;;;;;4898030;29;20546;-76
2023/07/21 03:53:41;;;;;;;2.10;1.90;;;18.50;99.50;;;;;;4897491;29;20466;-76
2023/07/21 03:56:09;;;;;;;4.27;2.13;;;18.50;99.60;;;;;;4900476;29;20471;-82
2023/07/21 03:58:36;;;;;;;2.63;2.07;;;18.40;99.70;;;;;;4901297;29;20568;-82
2023/07/21 04:01:04;;;;;;;2.10;1.97;;;18.50;99.80;;;;;;4901729;29;20470;-82
2023/07/21 04:03:32;;;;;;;3.67;2.50;;;18.50;99.80;;;;;;4901141;29;20481;-81
2023/07/21 04:06:08;;;;;;;4.90;2.70;;;18.50;99.90;;;;;;4901081;29;20511;-76
2023/07/21 04:08:35;;;;;;;2.37;2.13;;;18.50;99.90;;;;;;4900955;29;20995;-76
2023/07/21 04:11:06;;;;;;;6.13;2.60;;;18.50;99.90;;;;;;4901408;29;20489;-76
2023/07/21 04:13:34;;;;;;;3.50;2.10;;;18.50;99.90;;;;;;4900689;29;20569;-76
2023/07/21 04:16:01;;;;;;;6.80;2.73;;;18.50;99.90;;;;;;4901369;29;20561;-81
2023/07/21 04:18:28;;;;;;;2.50;2.30;;;18.60;99.90;;;;;;4900780;29;20907;-75
2023/07/21 04:20:55;;;;;;;3.67;2.33;;;18.60;99.90;;;;;;4901094;29;20557;-75
2023/07/21 04:23:22;;;;;;;2.67;2.30;;;18.60;99.90;;;;;;4900182;29;20969;-76
2023/07/21 04:25:49;;;;;;;2.57;2.37;;;18.60;99.90;;;;;;4901000;29;21055;-75
2023/07/21 04:28:16;;;;;;;3.10;2.23;;;18.60;99.90;;;;;;4901251;29;20558;-75
2023/07/21 04:30:44;;;;;;;3.93;2.30;;;18.70;99.90;;;;;;4900732;29;20486;-75
2023/07/21 04:33:11;;;;;;;2.30;2.10;;;18.70;99.90;;;;;;4901252;29;20474;-82
2023/07/21 04:35:43;;;;;;;2.60;1.70;;;18.70;99.90;;;;;;4900506;29;20479;-82
2023/07/21 04:38:11;;;;;;;2.93;2.40;;;18.80;99.90;;;;;;4901112;29;20573;-75
2023/07/21 04:40:44;;;;;;;3.37;2.20;;;18.80;99.90;;;;;;4900281;29;20538;-82
2023/07/21 04:43:11;;;;;;;4.43;2.37;;;18.90;99.90;;;;;;4900869;29;20474;-82
2023/07/21 04:45:41;;;;;;;2.83;2.07;;;18.90;99.90;;;;;;4899185;29;20483;-82
2023/07/21 04:48:09;;;;;;;1.60;1.50;;;19.00;99.80;;;;;;4900788;29;20475;-81
2023/07/21 04:50:42;;;;;;;2.33;2.13;;;19.00;99.70;;;;;;4900258;29;20481;-76
2023/07/21 04:53:09;;;;;;;2.10;2.00;;;19.10;99.70;;;;;;4900835;29;20470;-81
2023/07/21 04:55:38;;;;;;;2.03;1.80;;;19.10;99.70;;;;;;4900068;29;20486;-76
2023/07/21 04:58:05;;;;;;;2.40;2.20;;;19.20;99.70;;;;;;4900516;29;20474;-75
2023/07/21 05:00:32;;;;;;;1.70;1.60;;;19.20;99.70;;;;;;4900190;29;20615;-83
2023/07/21 05:02:59;;;;;;;3.90;2.70;;;19.30;99.70;;;;;;4900312;29;20474;-82
2023/07/21 05:05:28;;;;;;;4.03;2.17;;;19.40;99.70;;;;;;4900132;29;20506;-82
2023/07/21 05:07:55;;;;;;;3.60;2.30;;;19.40;99.70;;;;;;4891355;29;20985;-76
2023/07/21 05:10:23;;;;;;;2.33;2.10;;;19.50;99.60;;;;;;4900268;29;20862;-76
2023/07/21 05:12:50;;;;;;;2.87;2.13;;;19.60;99.50;;;;;;4899809;29;20485;-76
2023/07/21 05:15:17;;;;;;;3.80;3.03;;;19.60;99.30;;;;;;4900250;29;20486;-82
2023/07/21 05:17:44;;;;;;;4.60;3.17;;;19.70;99.20;;;;;;4898949;29;20475;-76
2023/07/21 05:20:12;;;;;;;3.73;2.80;;;19.80;99.10;;;;;;4900338;29;20545;-82
2023/07/21 05:22:40;;;;;;;3.30;2.30;;;19.80;98.90;;;;;;4899501;29;20494;-75
2023/07/21 05:25:11;;;;;;;3.00;2.07;;;19.90;98.80;;;;;;4900265;29;20506;-75
2023/07/21 05:27:38;;;;;;;2.73;2.07;;;19.90;98.60;;;;;;4899146;29;20488;-81
2023/07/21 05:30:11;;;;;;;2.70;2.10;;;20.00;98.40;;;;;;4900076;29;20538;-81
2023/07/21 05:32:43;;;;;;;3.67;1.93;;;20.00;98.30;;;;;;4881413;29;20500;-76
2023/07/21 05:35:21;;;;;;;3.17;1.73;;;20.00;98.10;;;;;;4898572;29;20466;-76
2023/07/21 05:37:49;;;;;;;3.40;2.30;;;20.00;98.00;;;;;;4887893;29;20493;-75
2023/07/21 05:40:16;;;;;;;2.30;2.20;;;20.00;98.10;;;;;;4899656;29;20471;-81
2023/07/21 05:42:44;;;;;;;2.13;1.93;;;20.00;98.10;;;;;;4899700;29;20534;-81
2023/07/21 05:45:11;;;;;;;2.67;2.03;;;20.00;98.20;;;;;;4898221;29;20471;-76
2023/07/21 05:47:38;;;;;;;5.70;2.80;;;20.00;98.20;;;;;;4899452;29;20562;-76
2023/07/21 05:50:08;;;;;;;5.00;2.73;;;20.00;98.40;;;;;;4898812;29;20562;-76
2023/07/21 05:52:35;;;;;;;2.90;2.17;;;20.00;98.40;;;;;;4899473;29;20483;-76
2023/07/21 05:55:05;;;;;;;4.30;1.97;;;20.00;98.30;;;;;;4899348;29;20482;-76
2023/07/21 05:57:33;;;;;;;2.90;2.00;;;20.10;98.20;;;;;;4899715;29;20482;-82
2023/07/21 06:00:00;;;;;;;4.53;2.50;;;20.10;98.20;;;;;;4899094;29;21023;-82
2023/07/21 06:02:30;;;;;;;2.50;2.03;;;20.10;98.20;;;;;;4899619;29;20494;-76
2023/07/21 06:04:58;;;;;;;3.70;2.30;;;20.10;98.10;;;;;;4899039;29;20490;-82
2023/07/21 06:07:25;;;;;;;2.37;2.17;;;20.10;98.10;;;;;;4899047;29;20505;-76
2023/07/21 06:09:52;;;;;;;4.23;2.10;;;20.10;98.10;;;;;;4889191;29;21019;-76
2023/07/21 06:12:22;;;;;;;2.17;1.90;;;20.10;98.00;;;;;;4898470;29;20644;-82
2023/07/21 06:14:52;;;;;;;3.53;2.60;;;20.10;98.00;;;;;;4899207;29;20565;-76
2023/07/21 06:17:20;;;;;;;2.37;2.10;;;20.10;98.00;;;;;;4889596;29;20986;-75
2023/07/21 06:19:47;;;;;;;4.03;2.27;;;20.10;98.00;;;;;;4898425;29;20538;-82
2023/07/21 06:22:15;;;;;;;2.67;1.67;;;20.20;98.00;;;;;;4898385;29;20485;-81
2023/07/21 06:24:43;;;;;;;4.87;3.10;;;20.20;98.00;;;;;;4889273;29;20490;-81
2023/07/21 06:27:12;;;;;;;4.33;2.50;;;20.30;98.00;;;;;;4897851;29;20569;-81
2023/07/21 06:29:40;;;;;;;3.43;1.83;;;20.30;97.80;;;;;;4898973;29;20802;-77
2023/07/21 06:32:08;;;;;;;5.90;3.03;;;20.30;97.80;;;;;;4898348;29;20493;-76
2023/07/21 06:34:36;;;;;;;3.23;1.97;;;20.30;98.20;;;;;;4898972;29;20462;-82
2023/07/21 06:37:06;;;;;;;6.53;2.30;;;20.30;98.50;;;;;;4894739;29;20485;-81
2023/07/21 06:39:33;;;;;;;2.00;1.80;;;20.30;98.50;;;;;;4898501;29;20530;-76
2023/07/21 06:42:00;;;;;;;2.53;2.20;;;20.30;98.30;;;;;;4898682;29;20475;-76
2023/07/21 06:44:27;;;;;;;4.33;2.70;;;20.20;98.40;;;;;;4897779;29;20470;-76
2023/07/21 06:46:57;;;;;;;2.80;2.40;;;20.20;98.50;;;;;;4898813;29;21046;-76
2023/07/21 06:49:24;;;;;;;3.20;2.27;;;20.20;98.50;;;;;;4897761;29;20478;-76
2023/07/21 06:51:52;;;;;;;2.50;2.23;;;20.20;98.40;;;;;;4898624;29;20502;-76
2023/07/21 06:54:19;;;;;;;2.60;2.40;;;20.20;98.40;;;;;;4897670;29;20489;-82
2023/07/21 06:56:48;;;;;;;4.70;2.60;;;20.20;98.40;;;;;;4898200;29;20478;-82
2023/07/21 06:59:15;;;;;;;4.20;3.80;;;20.20;98.50;;;;;;4897727;29;20467;-77
2023/07/21 07:01:42;;;;;;;5.13;4.17;;;20.20;98.30;;;;;;4888829;29;20500;-76
2023/07/21 07:04:10;;;;;;;5.23;4.40;;;20.20;97.80;;;;;;4897148;29;20866;-77
2023/07/21 07:06:39;;;;;;;4.50;4.10;;;20.30;97.60;;;;;;4898421;29;20999;-76
2023/07/21 07:09:07;;;;;;;5.60;4.07;;;20.30;97.40;;;;;;4897873;29;20577;-75
2023/07/21 07:11:33;;;;;;;4.67;4.00;;;20.30;97.30;;;;;;4897223;29;20965;-76
2023/07/21 07:14:00;;;;;;;5.47;4.00;;;20.30;97.30;;;;;;4898158;29;21008;-76
2023/07/21 07:16:27;;;;;;;4.60;4.20;;;20.30;97.30;;;;;;4897574;29;20514;-76
2023/07/21 07:18:54;;;;;;;6.00;4.30;;;20.30;97.50;;;;;;4898307;29;20556;-77
2023/07/21 07:21:22;;;;;;;6.13;3.70;;;20.30;97.50;;;;;;4897736;29;20474;-76
2023/07/21 07:23:51;;;;;;;4.30;3.37;;;20.30;96.80;;;;;;4898462;29;20502;-81
2023/07/21 07:26:21;;;;;;;5.87;3.90;;;20.30;97.10;;;;;;4897668;29;20481;-75
2023/07/21 07:28:48;;;;;;;5.77;3.67;;;20.30;97.10;;;;;;4897701;29;20973;-75
2023/07/21 07:31:15;;;;;;;3.93;3.53;;;20.30;97.20;;;;;;4900242;29;20481;-75
2023/07/21 07:33:44;;;;;;;4.70;3.80;;;20.30;98.20;;;;;;4900607;29;20478;-75
2023/07/21 07:36:15;;;;;;;5.60;4.37;;;20.30;98.50;;;;;;4902247;29;20481;-80
2023/07/21 07:38:44;;;;;;;5.43;3.70;;;20.40;99.00;;;;;;4901201;29;20530;-80
2023/07/21 07:41:12;;;;;;;5.77;4.17;;;20.40;99.70;;;;;;4901929;29;20980;-75
2023/07/21 07:43:41;;;;;;;6.77;3.80;;;20.40;99.90;;;;;;4901446;29;20470;-75
2023/07/21 07:46:08;;;;;;;4.83;3.80;;;20.40;99.90;;;;;;4901843;29;20507;-81
2023/07/21 07:48:36;;;;;;;5.60;4.80;;;20.40;99.90;;;;;;4901350;29;20489;-80
2023/07/21 07:51:04;;;;;;;6.57;5.37;;;20.40;99.90;;;;;;4901960;29;20470;-80
2023/07/21 07:53:34;;;;;;;6.17;5.63;;;20.40;99.90;;;;;;4900503;29;20562;-75
2023/07/21 07:56:09;;;;;;;5.80;5.20;;;20.40;99.00;;;;;;4901541;29;20474;-76
2023/07/21 07:58:36;;;;;;;7.70;6.50;;;20.40;98.40;;;;;;4901240;29;20526;-75
2023/07/21 08:01:03;;;;;;;7.70;4.90;;;20.40;97.90;;;;;;4901526;29;20562;-75
2023/07/21 08:03:30;;;;;;;4.87;4.47;;;20.40;97.20;;;;;;4901367;29;20498;-81
2023/07/21 08:05:59;;;;;;;5.20;4.30;;;20.40;97.10;;;;;;4901538;29;20471;-76
2023/07/21 08:08:27;;;;;;;4.97;4.40;;;20.50;97.20;;;;;;4901118;29;20474;-76
2023/07/21 08:10:54;;;;;;;6.27;4.20;;;20.50;97.30;;;;;;4900952;29;20559;-81
2023/07/21 08:13:24;;;;;;;5.23;4.33;;;20.50;97.50;;;;;;4901571;29;20474;-80
2023/07/21 08:15:52;;;;;;;4.90;3.93;;;20.50;96.80;;;;;;4901141;29;20486;-80
2023/07/21 08:18:25;;;;;;;5.10;4.60;;;20.60;96.60;;;;;;4901347;29;20498;-81
2023/07/21 08:20:52;;;;;;;4.03;3.70;;;20.60;96.40;;;;;;4900505;29;20798;-75
2023/07/21 08:23:19;;;;;;;4.87;3.77;;;20.60;95.80;;;;;;4900888;29;20538;-75
2023/07/21 08:25:46;;;;;;;4.43;3.00;;;20.70;95.70;;;;;;4900687;29;20569;-75
2023/07/21 08:28:13;;;;;;;4.43;3.70;;;20.80;95.70;;;;;;4901238;29;20501;-81
2023/07/21 08:30:42;;;;;;;3.93;3.47;;;20.80;95.40;;;;;;4900836;29;20478;-76
2023/07/21 08:33:09;;;;;;;5.40;4.13;;;20.80;95.30;;;;;;4900946;29;20529;-75
2023/07/21 08:35:35;;;;;;;4.83;3.83;;;20.90;95.40;;;;;;4900607;29;20509;-80
2023/07/21 08:38:03;;;;;;;5.67;4.27;;;20.90;95.20;;;;;;4900796;29;20481;-80
2023/07/21 08:40:31;;;;;;;5.80;3.80;;;21.00;95.10;;;;;;4900622;29;20486;-80
2023/07/21 08:42:59;;;;;;;6.57;4.77;;;21.10;95.00;;;;;;4899861;29;20502;-81
2023/07/21 08:45:31;;;;;;;4.20;3.80;;;21.20;94.70;;;;;;4900520;29;20509;-81
2023/07/21 08:48:06;;;;;;;5.07;3.00;;;21.30;94.50;;;;;;4900650;29;20458;-81
2023/07/21 08:50:35;;;;;;;3.50;3.20;;;21.30;94.00;;;;;;4900781;29;20972;-80
2023/07/21 08:53:03;;;;;;;9.50;3.30;;;21.40;94.20;;;;;;4900282;29;20466;-81
2023/07/21 08:55:30;;;;;;;4.10;3.70;;;21.40;94.00;;;;;;4900748;29;20798;-81
2023/07/21 08:57:59;;;;;;;6.50;2.77;;;21.40;94.00;;;;;;4899802;29;20506;-81
2023/07/21 09:00:26;;;;;;;5.33;2.57;;;21.50;93.90;;;;;;4900564;29;20475;-80
2023/07/21 09:03:01;;;;;;;5.60;2.77;;;21.50;93.90;;;;;;4900278;29;20873;-80
2023/07/21 09:05:29;;;;;;;4.40;3.10;;;21.50;93.90;;;;;;4900698;29;20470;-80
2023/07/21 09:08:03;;;;;;;8.00;3.80;;;21.50;94.40;;;;;;4899755;29;20508;-80
2023/07/21 09:10:33;;;;;;;5.30;3.80;;;21.50;95.00;;;;;;4900386;29;21064;-81
2023/07/21 09:13:01;;;;;;;5.53;3.37;;;21.50;95.70;;;;;;4899295;29;20466;-81
2023/07/21 09:15:28;;;;;;;6.13;3.33;;;21.50;96.00;;;;;;4900052;29;20546;-81
2023/07/21 09:17:56;;;;;;;4.40;3.10;;;21.50;96.20;;;;;;4899788;29;20471;-81
2023/07/21 09:20:26;;;;;;;4.17;3.20;;;21.50;95.60;;;;;;4900256;29;20979;-81
2023/07/21 09:22:53;;;;;;;3.60;3.30;;;21.50;95.50;;;;;;4899660;29;20475;-81
2023/07/21 09:25:21;;;;;;;6.57;4.00;;;21.50;96.20;;;;;;4900398;29;20553;-81
2023/07/21 09:27:54;;;;;;;6.13;4.17;;;21.50;97.40;;;;;;4899403;29;20467;-81
2023/07/21 09:30:21;;;;;;;4.60;3.53;;;21.50;97.60;;;;;;4900429;29;20560;-81
2023/07/21 09:32:48;;;;;;;9.80;3.90;;;21.50;98.10;;;;;;4891478;29;20474;-81
2023/07/21 09:35:16;;;;;;;4.17;3.60;;;21.40;98.30;;;;;;4899703;29;20475;-81
2023/07/21 09:37:52;;;;;;;5.23;3.80;;;21.40;97.90;;;;;;4899526;29;20513;-80
2023/07/21 09:40:28;;;;;;;3.80;3.30;;;21.40;97.90;;;;;;4900181;29;20903;-81
2023/07/21 09:42:56;;;;;;;5.53;3.00;;;21.40;98.20;;;;;;4899557;29;20474;-81
2023/07/21 09:45:25;;;;;;;3.30;2.40;;;21.40;98.50;;;;;;4899622;29;20808;-81
2023/07/21 09:47:53;;;;;;;4.73;2.73;;;21.40;98.60;;;;;;4899296;29;20482;-81
2023/07/21 09:50:21;;;;;;;4.80;2.60;;;21.40;98.40;;;;;;4900308;29;20474;-81
2023/07/21 09:52:51;;;;;;;4.43;2.67;;;21.30;97.00;;;;;;4899281;29;20481;-81
2023/07/21 09:55:18;;;;;;;3.53;2.43;;;21.30;97.00;;;;;;4899890;29;20475;-81
2023/07/21 09:57:47;;;;;;;2.63;2.40;;;21.30;97.90;;;;;;4898948;29;20557;-81
2023/07/21 10:00:16;;;;;;;3.30;2.80;;;21.30;98.40;;;;;;4899661;29;20506;-82
2023/07/21 10:02:45;;;;;;;3.60;2.93;;;21.30;98.00;;;;;;4899762;29;20478;-82
2023/07/21 10:05:13;;;;;;;3.40;2.73;;;21.30;97.10;;;;;;4899218;29;20841;-82
2023/07/21 10:07:45;;;;;;;2.93;2.47;;;21.30;97.20;;;;;;4899525;29;20474;-81
2023/07/21 10:10:15;;;;;;;3.20;2.73;;;21.30;98.30;;;;;;4899365;29;20459;-82
2023/07/21 10:12:46;;;;;;;3.20;2.90;;;21.30;99.00;;;;;;4899473;29;20806;-82
2023/07/21 10:15:17;;;;;;;4.17;3.20;;;21.30;99.20;;;;;;4899163;29;20474;-81
2023/07/21 10:17:56;;;;;;;5.13;2.10;;;21.30;99.10;;;;;;4899311;29;20985;-81
2023/07/21 10:20:39;;;;;;;2.97;2.43;;;21.40;98.50;;;;;;4899103;29;20462;-81
2023/07/21 10:23:10;;;;;;;3.87;2.60;;;21.40;98.60;;;;;;4899668;29;20542;-77
2023/07/21 10:25:58;;;;;;;3.93;2.60;;;21.50;97.60;;;;;;4899355;29;20557;-76
2023/07/21 10:28:25;;;;;;;3.90;2.60;;;21.50;97.00;;;;;;4903994;29;20512;-76
2023/07/21 10:30:55;;;;;;;2.77;2.50;;;21.60;97.00;;;;;;4898356;29;20542;-77
2023/07/21 10:33:30;;;;;;;3.20;2.90;;;21.60;97.30;;;;;;4899021;29;20479;-76
2023/07/21 10:36:13;;;;;;;2.63;2.43;;;21.60;95.70;;;;;;4898348;29;20469;-76
2023/07/21 10:38:47;;;;;;;4.10;2.90;;;21.60;95.40;;;;;;4898161;29;20474;-76
2023/07/21 10:41:15;;;;;;;5.77;2.80;;;21.70;95.30;;;;;;4898950;29;20953;-76
2023/07/21 10:43:44;;;;;;;3.20;2.80;;;21.70;95.10;;;;;;4898440;29;20537;-76
2023/07/21 10:46:11;;;;;;;6.03;2.73;;;21.70;95.10;;;;;;4898843;29;20984;-80
2023/07/21 10:48:38;;;;;;;4.53;4.13;;;21.70;95.20;;;;;;4898303;29;20474;-75
2023/07/21 10:51:05;;;;;;;2.90;2.70;;;21.70;94.90;;;;;;4898786;29;20553;-75
2023/07/21 10:53:32;;;;;;;3.53;2.70;;;21.80;95.20;;;;;;4898525;29;20478;-75
2023/07/21 10:56:07;;;;;;;2.97;2.67;;;21.70;95.50;;;;;;4898792;29;20474;-76
2023/07/21 10:58:38;;;;;;;3.97;3.20;;;21.80;95.90;;;;;;4898001;29;20565;-75
2023/07/21 11:01:05;;;;;;;4.87;4.47;;;21.90;96.50;;;;;;4898599;29;21005;-80
2023/07/21 11:03:32;;;;;;;3.73;3.30;;;21.90;96.70;;;;;;4898302;29;20563;-80
2023/07/21 11:05:59;;;;;;;4.10;3.07;;;22.00;96.90;;;;;;4897860;29;20463;-80
2023/07/21 11:08:29;;;;;;;4.90;4.03;;;22.00;97.00;;;;;;4898665;29;20459;-81
2023/07/21 11:10:56;;;;;;;6.73;4.77;;;22.10;96.50;;;;;;4898032;29;21724;-82
2023/07/21 11:13:23;;;;;;;3.30;2.93;;;22.10;96.50;;;;;;4898472;29;20498;-81
2023/07/21 11:15:56;;;;;;;3.97;2.77;;;22.10;96.60;;;;;;4896876;29;21040;-75
2023/07/21 11:18:23;;;;;;;4.20;2.30;;;22.10;96.20;;;;;;4897135;29;20482;-75
2023/07/21 11:20:51;;;;;;;3.50;2.23;;;22.20;96.20;;;;;;4887680;29;20574;-80
2023/07/21 11:23:18;;;;;;;3.83;2.83;;;22.20;96.00;;;;;;4898020;29;20857;-75
2023/07/21 11:26:01;;;;;;;3.23;2.17;;;22.20;95.20;;;;;;4897860;29;20977;-80
2023/07/21 11:28:28;;;;;;;7.00;2.90;;;22.20;94.80;;;;;;4897483;29;20489;-75
2023/07/21 11:30:57;;;;;;;5.70;2.40;;;22.30;94.80;;;;;;4888490;29;20474;-81
2023/07/21 11:33:24;;;;;;;2.77;2.43;;;22.30;94.70;;;;;;4898391;29;20471;-80
2023/07/21 11:35:52;;;;;;;2.17;1.97;;;22.30;94.90;;;;;;4898012;29;20493;-81
2023/07/21 11:38:20;;;;;;;3.80;2.10;;;22.40;95.30;;;;;;4897922;29;20498;-81
2023/07/21 11:40:48;;;;;;;1.90;1.63;;;22.40;96.10;;;;;;4897658;29;20538;-81
2023/07/21 11:43:16;;;;;;;3.97;2.40;;;22.40;95.90;;;;;;4898588;29;20546;-82
2023/07/21 11:45:46;;;;;;;5.10;2.53;;;22.40;96.90;;;;;;4897917;29;20474;-81
2023/07/21 11:48:19;;;;;;;4.20;2.30;;;22.40;97.00;;;;;;4887481;29;20463;-76
2023/07/21 11:50:51;;;;;;;1.80;1.70;;;22.40;97.10;;;;;;4886803;29;20530;-76
2023/07/21 11:53:18;;;;;;;2.37;2.17;;;22.40;97.50;;;;;;4898066;29;20459;-80
2023/07/21 11:55:45;;;;;;;3.57;1.90;;;22.30;96.40;;;;;;4898201;29;20509;-81
2023/07/21 11:58:18;;;;;;;2.23;2.00;;;22.30;96.50;;;;;;4897633;29;20478;-80
2023/07/21 12:00:45;;;;;;;2.27;1.83;;;22.30;96.80;;;;;;4896842;29;20506;-81
2023/07/21 12:03:12;;;;;;;3.03;2.20;;;22.30;97.10;;;;;;4896963;29;20968;-76
2023/07/21 12:05:41;;;;;;;4.73;2.50;;;22.30;97.40;;;;;;4897953;29;20553;-76
2023/07/21 12:08:09;;;;;;;3.93;2.57;;;22.20;97.80;;;;;;4897967;29;20534;-81
2023/07/21 12:10:36;;;;;;;4.50;2.47;;;22.20;97.90;;;;;;4898388;29;20482;-76
2023/07/21 12:13:04;;;;;;;2.90;2.47;;;22.20;98.00;;;;;;4897406;29;20488;-81
2023/07/21 12:15:31;;;;;;;3.17;2.83;;;22.10;97.20;;;;;;4897621;29;20478;-80
2023/07/21 12:18:03;;;;;;;3.10;2.80;;;22.20;97.20;;;;;;4900655;29;20478;-81
2023/07/21 12:20:30;;;;;;;5.50;2.30;;;22.20;96.80;;;;;;4901219;29;20829;-80
2023/07/21 12:22:59;;;;;;;3.10;2.27;;;22.20;97.00;;;;;;4900560;29;20537;-77
2023/07/21 12:25:27;;;;;;;3.87;2.30;;;22.20;97.00;;;;;;4900847;29;20481;-82
2023/07/21 12:27:54;;;;;;;2.53;2.10;;;22.20;97.70;;;;;;4901499;29;20481;-82
2023/07/21 12:30:21;;;;;;;1.83;1.73;;;22.20;98.60;;;;;;4900710;29;20521;-80
2023/07/21 12:32:48;;;;;;;2.00;1.80;;;22.30;98.70;;;;;;4900919;29;20496;-80
2023/07/21 12:35:16;;;;;;;3.30;2.33;;;22.30;98.60;;;;;;4899700;29;20493;-75
2023/07/21 12:37:43;;;;;;;3.10;1.47;;;22.30;99.40;;;;;;4900750;29;21039;-76
2023/07/21 12:40:15;;;;;;;2.27;2.07;;;22.40;99.30;;;;;;4900544;29;20936;-79
2023/07/21 12:42:45;;;;;;;2.10;1.90;;;22.40;99.00;;;;;;4901051;29;20478;-82
2023/07/21 12:45:12;;;;;;;2.30;1.97;;;22.40;99.10;;;;;;4900021;29;20984;-76
2023/07/21 12:47:39;;;;;;;2.33;2.20;;;22.40;99.20;;;;;;4900527;29;20608;-76
2023/07/21 12:50:07;;;;;;;5.50;2.80;;;22.40;99.30;;;;;;4900304;29;20474;-81
2023/07/21 12:52:34;;;;;;;5.63;2.67;;;22.40;99.70;;;;;;4900852;29;20471;-81
2023/07/21 12:55:01;;;;;;;2.10;1.97;;;22.40;99.90;;;;;;4899249;29;20478;-81